UAB weather

İncirlik Air Base
Adana, Adana Province, Turkey

Public forecast

Using degrees Celsius for public forecast. Weather courtesy of forecast.io.

Current aviation weather report (METAR) for İncirlik Air Base

Retrieved 2019/12/06 12:20 UTC (29 minutes ago):

LTAG 061220Z 00000KT CAVOK 21/03 Q1018 NOSIG

Aviation forecast (TAF) for İncirlik Air Base

Retrieved 2019/12/06 12:03 UTC (46 minutes ago):

TAF LTAG 061040Z 0612/0712 VRB02KT CAVOK